Time;durP1;ratioP1;P1;durP2;ratioP2;P2;SDS_P1;SDS_P2;PMS_P1;PMS_P2;Temp;Humidity;BMP_temperature;BMP_pressure;BME280_temperature;BME280_humidity;BME280_pressure;Samples;Min_cycle;Max_cycle;Signal;HPM_P1;HPM_P2
2022/01/17 00:02:23;;;;;;;7.07;5.70;;;;;;;1.10;100.00;97134.41;5135844;27;25001;-72
2022/01/17 00:04:49;;;;;;;8.35;6.30;;;;;;;1.03;100.00;97132.72;5132408;28;24437;-73
2022/01/17 00:07:16;;;;;;;7.78;6.32;;;;;;;0.98;100.00;97136.16;5134900;27;24962;-71
2022/01/17 00:09:43;;;;;;;8.68;6.90;;;;;;;0.96;100.00;97134.47;5135277;27;24786;-72
2022/01/17 00:12:11;;;;;;;6.82;6.05;;;;;;;1.00;100.00;97137.81;5135569;27;24425;-72
2022/01/17 00:14:41;;;;;;;8.03;6.40;;;;;;;1.00;100.00;97135.28;5135661;27;24416;-72
2022/01/17 00:17:24;;;;;;;8.88;6.82;;;;;;;0.96;100.00;97138.69;5135343;27;24536;-73
2022/01/17 00:19:54;;;;;;;9.60;6.45;;;;;;;1.05;100.00;97136.13;5134951;27;24490;-73
2022/01/17 00:22:22;;;;;;;6.75;6.13;;;;;;;1.04;100.00;97139.53;5135314;27;24516;-73
2022/01/17 00:24:49;;;;;;;7.57;6.53;;;;;;;1.02;100.00;97137.84;5135064;27;24417;-72
2022/01/17 00:27:15;;;;;;;9.32;7.47;;;;;;;1.04;100.00;97138.66;5134713;27;24429;-72
2022/01/17 00:29:42;;;;;;;7.03;6.32;;;;;;;1.14;100.00;97127.56;5135304;27;24848;-73
2022/01/17 00:32:10;;;;;;;9.47;7.27;;;;;;;1.05;100.00;97127.63;5134859;27;24521;-71
2022/01/17 00:34:36;;;;;;;8.63;7.18;;;;;;;1.00;100.00;97136.97;5135008;27;24469;-72
2022/01/17 00:37:03;;;;;;;7.82;6.93;;;;;;;0.95;100.00;97130.19;5134733;27;24478;-71
2022/01/17 00:39:29;;;;;;;8.45;7.28;;;;;;;1.01;100.00;97129.34;5135069;27;24421;-72
2022/01/17 00:41:56;;;;;;;8.27;7.27;;;;;;;1.02;100.00;97140.38;5134509;27;24512;-73
2022/01/17 00:44:23;;;;;;;7.77;6.97;;;;;;;1.02;100.00;97159.09;5134801;27;24437;-73
2022/01/17 00:46:51;;;;;;;8.95;8.00;;;;;;;1.14;100.00;97159.03;5134680;27;24417;-73
2022/01/17 00:49:20;;;;;;;8.57;7.50;;;;;;;1.16;100.00;97156.50;5134539;27;24416;-72
2022/01/17 00:51:46;;;;;;;10.10;7.75;;;;;;;1.09;100.00;97152.28;5134767;27;24849;-73
2022/01/17 00:54:13;;;;;;;9.98;7.93;;;;;;;1.03;100.00;97159.94;5134690;27;24503;-73
2022/01/17 00:56:39;;;;;;;13.93;7.60;;;;;;;1.04;100.00;97146.31;5134179;27;24425;-72
2022/01/17 00:59:06;;;;;;;7.80;7.00;;;;;;;1.01;100.00;97154.00;5134619;27;24812;-72
2022/01/17 01:01:32;;;;;;;7.90;7.10;;;;;;;1.12;100.00;97149.72;5136877;27;24429;-72
2022/01/17 01:03:59;;;;;;;8.57;7.68;;;;;;;1.11;100.00;97155.66;5138241;27;24460;-73
2022/01/17 01:06:27;;;;;;;7.63;6.93;;;;;;;1.07;100.00;97159.91;5138337;27;24482;-72
2022/01/17 01:08:53;;;;;;;8.52;7.25;;;;;;;1.07;100.00;97169.28;5138852;27;24466;-73
2022/01/17 01:11:19;;;;;;;9.25;7.65;;;;;;;1.09;100.00;97182.88;5139037;27;24490;-71
2022/01/17 01:13:46;;;;;;;10.65;7.20;;;;;;;1.09;100.00;97180.34;5138542;27;24980;-72
2022/01/17 01:16:30;;;;;;;9.73;7.20;;;;;;;1.72;100.00;97183.47;5138509;27;24436;-72
2022/01/17 01:19:18;;;;;;;7.00;6.13;;;;;;;1.41;100.00;97185.34;5139184;27;24420;-72
2022/01/17 01:22:00;;;;;;;7.25;6.40;;;;;;;1.24;100.00;97179.44;5138605;27;24934;-72
2022/01/17 01:30:17;;;;;;;7.63;6.80;;;;;;;1.01;100.00;97190.56;5100549;27;24432;-72
2022/01/17 01:32:48;;;;;;;9.50;7.40;;;;;;;0.98;100.00;97197.38;5138082;27;24843;-73
2022/01/17 01:35:18;;;;;;;8.93;7.50;;;;;;;1.00;100.00;97196.50;5138233;27;24806;-72
2022/01/17 01:37:47;;;;;;;8.33;7.40;;;;;;;0.89;100.00;97200.78;5138017;27;24482;-73
2022/01/17 01:40:15;;;;;;;8.80;7.43;;;;;;;0.93;100.00;97197.41;5138205;27;24496;-73
2022/01/17 01:42:41;;;;;;;11.02;8.25;;;;;;;0.88;100.00;97205.03;5138095;27;25056;-72
2022/01/17 01:45:09;;;;;;;7.78;6.97;;;;;;;0.92;100.00;97209.28;5138556;27;24421;-72
2022/01/17 01:47:36;;;;;;;8.43;7.00;;;;;;;0.91;100.00;97199.94;5137363;27;24421;-73
2022/01/17 01:50:04;;;;;;;9.80;6.00;;;;;;;0.90;100.00;97188.03;5134645;27;24946;-72
2022/01/17 01:52:30;;;;;;;9.00;7.25;;;;;;;0.90;100.00;97199.94;5133829;27;24429;-72
2022/01/17 01:54:58;;;;;;;8.00;6.55;;;;;;;0.98;100.00;97192.28;5133678;27;24759;-72
2022/01/17 01:57:24;;;;;;;8.48;6.75;;;;;;;0.94;100.00;97193.97;5133153;27;24977;-72
2022/01/17 01:59:52;;;;;;;8.07;6.63;;;;;;;1.00;100.00;97191.41;5133705;27;24471;-71
2022/01/17 02:02:18;;;;;;;9.25;7.35;;;;;;;0.99;100.00;97181.22;5133277;27;24423;-71
2022/01/17 02:04:45;;;;;;;10.07;7.47;;;;;;;1.01;100.00;97180.38;5133526;27;24409;-71
2022/01/17 02:07:11;;;;;;;10.88;7.60;;;;;;;0.92;100.00;97176.09;5136052;27;24798;-72
2022/01/17 02:09:38;;;;;;;8.85;7.30;;;;;;;1.00;100.00;97177.78;5135766;27;24413;-72
2022/01/17 02:12:08;;;;;;;9.57;7.40;;;;;;;1.25;100.00;97171.75;5133210;27;24515;-72
2022/01/17 02:14:35;;;;;;;7.70;6.90;;;;;;;1.16;100.00;97171.81;5133147;27;24942;-72
2022/01/17 02:17:05;;;;;;;7.80;6.72;;;;;;;1.06;100.00;97168.44;5132688;27;24791;-71
2022/01/17 02:19:34;;;;;;;7.13;6.35;;;;;;;1.04;100.00;97165.06;5133243;27;24409;-72
2022/01/17 02:22:02;;;;;;;8.88;6.82;;;;;;;1.12;100.00;97160.75;5133386;27;24429;-72
2022/01/17 02:24:29;;;;;;;7.22;6.47;;;;;;;1.19;100.00;97170.09;5132994;27;24892;-72
2022/01/17 02:26:55;;;;;;;7.40;6.07;;;;;;;1.20;100.00;97170.94;5135224;27;24425;-72
2022/01/17 02:29:22;;;;;;;7.47;6.20;;;;;;;1.19;100.00;97172.66;5137794;27;24420;-72
2022/01/17 02:31:49;;;;;;;7.72;6.45;;;;;;;1.20;100.00;97168.41;5137673;27;24420;-72
2022/01/17 02:34:16;;;;;;;6.88;6.07;;;;;;;1.24;100.00;97171.78;5137840;27;24421;-73
2022/01/17 02:36:42;;;;;;;8.95;6.35;;;;;;;1.16;100.00;97169.25;5135461;27;24425;-75
2022/01/17 02:39:10;;;;;;;8.02;6.20;;;;;;;1.16;100.00;97159.91;5132743;27;24441;-71
2022/01/17 02:41:39;;;;;;;6.33;5.57;;;;;;;1.21;100.00;97170.09;5132935;27;24432;-71
2022/01/17 02:44:06;;;;;;;8.13;6.25;;;;;;;1.12;100.00;97170.97;5132544;27;24417;-73
2022/01/17 02:46:33;;;;;;;7.10;6.15;;;;;;;1.17;100.00;97165.84;5135323;27;24516;-73
2022/01/17 02:49:02;;;;;;;7.10;6.40;;;;;;;1.25;100.00;97163.25;5133085;27;24448;-71
2022/01/17 02:51:29;;;;;;;8.07;6.57;;;;;;;1.21;100.00;97164.97;5132432;27;24934;-71
2022/01/17 02:53:57;;;;;;;6.85;6.07;;;;;;;1.14;100.00;97161.59;5132434;27;24887;-71
2022/01/17 02:56:26;;;;;;;7.95;5.80;;;;;;;1.14;100.00;97169.25;5131984;27;24420;-71
2022/01/17 02:58:52;;;;;;;8.13;6.07;;;;;;;1.12;100.00;97170.13;5132230;27;24489;-71
2022/01/17 03:01:22;;;;;;;7.85;6.60;;;;;;;1.05;100.00;97176.94;5132360;27;24848;-71
2022/01/17 03:03:49;;;;;;;7.50;5.97;;;;;;;1.11;100.00;97168.41;5132329;27;24436;-71
2022/01/17 03:06:17;;;;;;;7.03;6.25;;;;;;;1.10;100.00;97175.22;5131814;27;24999;-71
2022/01/17 03:08:44;;;;;;;7.22;6.53;;;;;;;1.14;100.00;97183.72;5132217;27;24413;-73
2022/01/17 03:11:13;;;;;;;6.93;6.00;;;;;;;1.22;100.00;97174.31;5132147;27;24783;-72
2022/01/17 03:13:41;;;;;;;11.93;6.55;;;;;;;1.18;100.00;97181.13;5132189;27;24771;-72
2022/01/17 03:16:11;;;;;;;8.13;5.93;;;;;;;1.21;100.00;97181.13;5131959;27;24413;-72
2022/01/17 03:18:40;;;;;;;7.40;5.97;;;;;;;1.20;100.00;97176.91;5131800;27;25013;-73
2022/01/17 03:21:08;;;;;;;8.05;5.90;;;;;;;1.29;100.00;97181.09;5131977;27;24439;-73
2022/01/17 03:23:35;;;;;;;5.80;5.17;;;;;;;1.31;100.00;97176.84;5131439;27;24599;-72
2022/01/17 03:26:02;;;;;;;6.45;5.43;;;;;;;1.29;100.00;97178.56;5131773;27;24478;-72
2022/01/17 03:28:30;;;;;;;6.82;5.50;;;;;;;1.29;100.00;97170.06;5131987;27;24485;-72
2022/01/17 03:30:58;;;;;;;5.65;4.93;;;;;;;1.29;100.00;97164.94;5131905;27;24424;-72
2022/01/17 03:33:25;;;;;;;5.88;5.18;;;;;;;1.30;100.00;97166.63;5131679;27;25063;-72
2022/01/17 03:35:52;;;;;;;7.40;5.57;;;;;;;1.28;100.00;97155.59;5131487;27;24424;-72
2022/01/17 03:38:21;;;;;;;7.27;5.60;;;;;;;1.31;100.00;97150.50;5135242;27;24530;-73
2022/01/17 03:40:49;;;;;;;6.10;5.35;;;;;;;1.28;100.00;97148.78;5132691;27;24428;-71
2022/01/17 03:43:16;;;;;;;8.20;5.20;;;;;;;1.27;100.00;97151.34;5131593;27;24806;-71
2022/01/17 03:45:45;;;;;;;6.63;5.50;;;;;;;1.27;100.00;97156.47;5131381;27;24417;-71
2022/01/17 03:48:13;;;;;;;7.00;5.60;;;;;;;1.29;100.00;97160.69;5131359;27;24423;-72
2022/01/17 03:50:40;;;;;;;6.85;5.28;;;;;;;1.28;100.00;97181.13;5131480;27;24424;-72
2022/01/17 03:53:06;;;;;;;6.03;4.53;;;;;;;1.26;100.00;97185.38;5131534;27;24409;-72
2022/01/17 03:55:34;;;;;;;6.75;4.40;;;;;;;1.24;100.00;97185.38;5131331;27;24416;-72
2022/01/17 03:58:01;;;;;;;5.70;4.70;;;;;;;1.28;100.00;97192.19;5131164;27;24974;-72
2022/01/17 04:00:31;;;;;;;4.55;4.00;;;;;;;1.26;100.00;97187.91;5131086;27;24433;-73
2022/01/17 04:02:58;;;;;;;4.32;3.60;;;;;;;1.25;100.00;97197.28;5131360;27;24519;-73
2022/01/17 04:05:26;;;;;;;4.83;4.20;;;;;;;1.24;100.00;97198.16;5131201;27;24436;-71
2022/01/17 04:07:53;;;;;;;6.53;4.22;;;;;;;1.23;100.00;97191.34;5131661;27;24417;-72
2022/01/17 04:10:19;;;;;;;7.70;4.43;;;;;;;1.15;100.00;97190.50;5135235;27;24417;-72
2022/01/17 04:12:46;;;;;;;5.07;4.10;;;;;;;1.10;100.00;97187.97;5135143;27;24417;-73
2022/01/17 04:15:14;;;;;;;3.97;3.50;;;;;;;1.08;100.00;97199.06;5132251;27;24421;-73
2022/01/17 04:17:42;;;;;;;7.45;4.95;;;;;;;1.05;100.00;97204.16;5133732;27;24421;-73
2022/01/17 04:20:15;;;;;;;5.00;4.30;;;;;;;1.03;100.00;97198.19;5134128;27;24478;-72
2022/01/17 04:22:51;;;;;;;8.57;5.38;;;;;;;1.02;100.00;97196.50;5134004;27;24436;-72
2022/01/17 04:25:18;;;;;;;6.15;4.82;;;;;;;1.07;100.00;97195.63;5135190;27;24416;-72
2022/01/17 04:27:45;;;;;;;7.10;4.53;;;;;;;1.09;100.00;97193.94;5135978;27;24424;-73
2022/01/17 04:30:13;;;;;;;7.55;4.63;;;;;;;1.09;100.00;97190.53;5135624;27;24495;-72
2022/01/17 04:32:40;;;;;;;5.20;4.60;;;;;;;1.07;100.00;97190.53;5134938;27;24421;-72
2022/01/17 04:35:07;;;;;;;7.05;5.22;;;;;;;1.11;100.00;97178.63;5132074;27;24417;-72
2022/01/17 04:37:33;;;;;;;7.13;4.90;;;;;;;1.07;100.00;97177.78;5135085;27;24431;-71
2022/01/17 04:40:01;;;;;;;5.60;4.40;;;;;;;1.09;100.00;97175.22;5135116;27;24417;-71
2022/01/17 04:42:28;;;;;;;6.30;4.30;;;;;;;1.07;100.00;97177.78;5134983;27;24458;-71
2022/01/17 04:45:08;;;;;;;4.95;4.43;;;;;;;1.06;100.00;97178.63;5134742;27;24478;-71
2022/01/17 04:47:37;;;;;;;6.30;4.60;;;;;;;1.08;100.00;97189.69;5134661;27;24427;-71
2022/01/17 04:50:04;;;;;;;5.27;4.37;;;;;;;1.06;100.00;97199.03;5134794;27;24981;-71
2022/01/17 04:52:31;;;;;;;4.97;3.97;;;;;;;1.02;100.00;97194.81;5134767;27;24421;-73
2022/01/17 04:55:01;;;;;;;4.22;3.83;;;;;;;1.01;100.00;97207.59;5135099;27;24417;-73
2022/01/17 04:57:30;;;;;;;4.60;4.07;;;;;;;1.01;100.00;97212.69;5134365;27;24787;-73
2022/01/17 04:59:56;;;;;;;4.75;4.22;;;;;;;1.00;100.00;97211.81;5134807;27;24444;-73
2022/01/17 05:02:23;;;;;;;5.00;4.47;;;;;;;0.96;100.00;97197.38;5134963;27;24421;-72
2022/01/17 05:04:51;;;;;;;5.80;5.15;;;;;;;0.96;100.00;97197.38;5134912;27;24433;-72
2022/01/17 05:07:17;;;;;;;7.18;5.03;;;;;;;0.95;100.00;97205.88;5134459;27;24470;-72
2022/01/17 05:09:44;;;;;;;6.97;5.30;;;;;;;0.95;100.00;97216.94;5134447;27;24418;-72
2022/01/17 05:12:12;;;;;;;6.88;5.30;;;;;;;0.95;100.00;97216.94;5134638;27;24417;-72
2022/01/17 05:14:42;;;;;;;5.50;4.43;;;;;;;0.94;100.00;97201.63;5134403;27;24424;-71
2022/01/17 05:17:23;;;;;;;5.90;4.65;;;;;;;0.98;100.00;97205.88;5134003;27;24421;-72
2022/01/17 05:19:49;;;;;;;6.00;5.38;;;;;;;0.92;100.00;97218.63;5134604;27;24482;-72
2022/01/17 05:22:15;;;;;;;5.30;4.57;;;;;;;0.91;100.00;97216.94;5135733;27;24417;-73
2022/01/17 05:24:42;;;;;;;7.10;5.63;;;;;;;0.88;100.00;97222.88;5138388;27;24425;-72
2022/01/17 05:27:08;;;;;;;7.25;4.93;;;;;;;0.88;100.00;97224.59;5138246;27;24790;-73
2022/01/17 05:29:35;;;;;;;5.93;5.00;;;;;;;0.90;100.00;97228.00;5137813;27;24512;-72
2022/01/17 05:32:04;;;;;;;6.95;4.90;;;;;;;0.91;100.00;97234.78;5135543;27;24980;-72
2022/01/17 05:34:30;;;;;;;9.88;5.90;;;;;;;0.89;100.00;97229.72;5134430;27;24998;-72
2022/01/17 05:36:57;;;;;;;8.05;5.45;;;;;;;0.92;100.00;97226.28;5137527;27;24472;-72
2022/01/17 05:39:23;;;;;;;7.20;5.47;;;;;;;0.94;100.00;97233.09;5134676;27;24449;-72
2022/01/17 05:41:50;;;;;;;6.70;5.32;;;;;;;0.93;100.00;97235.66;5133963;27;25018;-71
2022/01/17 05:44:16;;;;;;;6.32;5.22;;;;;;;0.91;100.00;97227.16;5133910;27;24413;-71
2022/01/17 05:46:43;;;;;;;5.47;4.95;;;;;;;0.89;100.00;97231.38;5133172;27;24421;-71
2022/01/17 05:49:11;;;;;;;11.10;5.78;;;;;;;0.94;100.00;97229.69;5133767;27;24490;-71
2022/01/17 05:51:37;;;;;;;9.87;6.10;;;;;;;0.92;100.00;97223.72;5131988;27;24433;-72
2022/01/17 05:54:04;;;;;;;5.43;4.90;;;;;;;0.96;100.00;97218.66;5125977;27;24515;-72
2022/01/17 05:56:30;;;;;;;5.45;4.78;;;;;;;0.94;100.00;97215.22;5132958;27;24433;-72
2022/01/17 05:58:57;;;;;;;6.22;5.18;;;;;;;0.95;100.00;97216.94;5132603;27;25028;-71
2022/01/17 06:01:23;;;;;;;7.10;5.10;;;;;;;0.98;100.00;97222.88;5132733;27;24829;-70
2022/01/17 06:03:50;;;;;;;6.40;5.03;;;;;;;0.89;100.00;97219.50;5133294;27;24444;-72
2022/01/17 06:06:17;;;;;;;5.90;5.20;;;;;;;0.91;100.00;97219.50;5130322;27;24992;-74
2022/01/17 06:08:44;;;;;;;5.40;4.88;;;;;;;0.94;100.00;97212.69;5132519;27;25133;-72
2022/01/17 06:11:11;;;;;;;7.28;5.38;;;;;;;0.94;100.00;97201.63;5112671;28;24422;-73
2022/01/17 06:13:38;;;;;;;6.18;5.43;;;;;;;0.96;100.00;97205.00;5116442;28;24428;-73
2022/01/17 06:16:05;;;;;;;5.70;5.13;;;;;;;0.98;100.00;97210.97;5134835;27;25146;-72
2022/01/17 06:18:31;;;;;;;6.57;4.75;;;;;;;1.00;100.00;97219.47;5132810;27;24464;-73
2022/01/17 06:20:58;;;;;;;5.80;4.82;;;;;;;1.00;100.00;97227.13;5132874;27;24968;-71
2022/01/17 06:23:26;;;;;;;6.30;5.70;;;;;;;1.02;100.00;97227.97;5132413;27;24415;-70
2022/01/17 06:25:52;;;;;;;6.60;5.70;;;;;;;1.03;100.00;97232.22;5134772;27;24515;-72
2022/01/17 06:28:19;;;;;;;7.22;5.72;;;;;;;1.08;100.00;97222.88;5134889;27;24425;-71
2022/01/17 06:30:46;;;;;;;6.00;5.18;;;;;;;1.05;100.00;97227.97;5135051;27;25043;-72
2022/01/17 06:33:12;;;;;;;6.05;5.38;;;;;;;1.04;100.00;97236.50;5133177;27;24507;-72
2022/01/17 06:35:39;;;;;;;6.10;5.50;;;;;;;1.03;100.00;97244.13;5133549;27;24424;-72
2022/01/17 06:38:05;;;;;;;7.63;5.57;;;;;;;1.03;100.00;97246.69;5133476;27;24786;-72
2022/01/17 06:40:33;;;;;;;5.28;4.78;;;;;;;1.04;100.00;97256.91;5132989;27;24444;-72
2022/01/17 06:42:59;;;;;;;6.43;5.03;;;;;;;1.02;100.00;97266.25;5133592;27;24493;-74
2022/01/17 06:45:26;;;;;;;7.47;5.85;;;;;;;1.06;100.00;97272.19;5132887;27;24534;-73
2022/01/17 06:47:52;;;;;;;5.72;5.00;;;;;;;1.02;100.00;97273.91;5133727;27;24424;-73
2022/01/17 06:50:19;;;;;;;7.43;4.85;;;;;;;1.00;100.00;97273.03;5134855;27;24504;-71
2022/01/17 06:52:46;;;;;;;6.17;5.37;;;;;;;0.99;100.00;97261.13;5132430;27;24420;-74
2022/01/17 06:55:12;;;;;;;5.90;5.30;;;;;;;1.01;100.00;97264.56;5134964;27;24463;-73
2022/01/17 06:57:40;;;;;;;7.50;5.10;;;;;;;0.95;100.00;97273.03;5134610;27;24458;-74
2022/01/17 07:00:10;;;;;;;4.72;4.32;;;;;;;0.95;100.00;97274.75;5129850;27;24456;-73
2022/01/17 07:02:37;;;;;;;5.78;4.55;;;;;;;0.95;100.00;97293.47;5135887;27;24436;-73
2022/01/17 07:05:05;;;;;;;5.97;4.85;;;;;;;0.94;100.00;97285.81;5131965;27;24521;-74
2022/01/17 07:07:31;;;;;;;5.35;4.68;;;;;;;0.93;100.00;97291.78;5131123;27;24833;-75
2022/01/17 07:09:57;;;;;;;4.90;4.33;;;;;;;0.93;100.00;97291.78;5130742;27;25073;-75
2022/01/17 07:12:24;;;;;;;6.37;5.07;;;;;;;0.95;100.00;97311.31;5131921;27;24962;-75
2022/01/17 07:14:52;;;;;;;5.35;4.80;;;;;;;1.01;100.00;97325.78;5129641;27;24978;-75
2022/01/17 07:17:19;;;;;;;6.07;4.75;;;;;;;0.99;100.00;97318.97;5133472;27;24432;-75
2022/01/17 07:19:45;;;;;;;4.93;4.40;;;;;;;0.94;100.00;97318.97;5132227;27;24476;-74
2022/01/17 07:22:12;;;;;;;4.80;4.20;;;;;;;0.96;100.00;97336.00;5131899;27;24436;-76
2022/01/17 07:24:39;;;;;;;8.15;4.88;;;;;;;0.94;100.00;97341.94;5131727;27;24957;-75
2022/01/17 07:27:07;;;;;;;4.93;4.30;;;;;;;1.05;100.00;97354.69;5132485;27;24413;-75
2022/01/17 07:29:33;;;;;;;5.07;4.05;;;;;;;1.03;100.00;97362.34;5130559;27;24428;-75
2022/01/17 07:32:01;;;;;;;4.10;3.70;;;;;;;1.02;100.00;97359.78;5131818;27;24421;-76
2022/01/17 07:34:28;;;;;;;4.40;3.58;;;;;;;1.03;100.00;97372.53;5129670;27;24436;-74
2022/01/17 07:36:54;;;;;;;5.40;3.45;;;;;;;1.02;100.00;97332.56;5129453;27;24432;-75
2022/01/17 07:39:21;;;;;;;4.40;3.80;;;;;;;1.04;100.00;97324.91;5129696;27;24456;-75
2022/01/17 07:41:47;;;;;;;3.90;3.00;;;;;;;1.02;100.00;97322.38;5130830;27;24429;-70
2022/01/17 07:44:19;;;;;;;3.88;3.17;;;;;;;1.03;100.00;97320.66;5129146;27;24529;-74
2022/01/17 07:46:53;;;;;;;3.22;2.92;;;;;;;1.02;100.00;97309.63;5135051;27;24527;-74
2022/01/17 07:49:23;;;;;;;3.33;2.70;;;;;;;1.03;100.00;97316.41;5136670;27;24991;-74
2022/01/17 07:51:58;;;;;;;4.78;2.90;;;;;;;1.03;100.00;97331.72;5130330;27;24425;-73
2022/01/17 07:54:26;;;;;;;4.57;3.50;;;;;;;1.02;100.00;97336.84;5129570;27;24444;-74
2022/01/17 07:56:53;;;;;;;3.35;3.05;;;;;;;1.01;100.00;97332.59;5129972;27;24813;-75
2022/01/17 07:59:20;;;;;;;3.03;2.72;;;;;;;1.04;100.00;97337.66;5128364;28;24452;-72
2022/01/17 08:01:46;;;;;;;5.43;3.20;;;;;;;1.03;100.00;97336.81;5129849;28;24429;-73
2022/01/17 08:04:13;;;;;;;3.97;2.90;;;;;;;1.02;100.00;97342.78;5129673;27;24494;-75
2022/01/17 08:06:41;;;;;;;2.97;2.60;;;;;;;1.04;100.00;97340.22;5129927;28;24752;-75
2022/01/17 08:09:10;;;;;;;3.55;3.25;;;;;;;1.06;100.00;97346.19;5129285;27;24427;-74
2022/01/17 08:11:36;;;;;;;3.50;3.10;;;;;;;1.09;100.00;97344.47;5135593;27;24778;-74
2022/01/17 08:14:03;;;;;;;3.15;2.75;;;;;;;1.08;100.00;97345.34;5134639;27;24824;-74
2022/01/17 08:16:29;;;;;;;6.43;3.03;;;;;;;1.14;100.00;97352.13;5134285;27;24433;-74
2022/01/17 08:18:56;;;;;;;3.43;3.00;;;;;;;1.13;100.00;97358.09;5132936;27;24524;-73
2022/01/17 08:21:23;;;;;;;4.15;2.90;;;;;;;1.13;100.00;97358.09;5133820;27;24832;-74
2022/01/17 08:23:52;;;;;;;7.10;3.20;;;;;;;1.12;100.00;97362.34;5130304;27;24529;-74
2022/01/17 08:26:19;;;;;;;4.60;3.15;;;;;;;1.18;100.00;97380.19;5131548;27;24486;-74
2022/01/17 08:28:45;;;;;;;5.40;2.88;;;;;;;1.21;100.00;97379.34;5133069;27;24436;-74
2022/01/17 08:31:12;;;;;;;3.85;3.45;;;;;;;1.29;100.00;97374.25;5132242;27;24482;-75
2022/01/17 08:33:39;;;;;;;4.30;3.85;;;;;;;1.32;100.00;97371.69;5132588;27;24482;-74
2022/01/17 08:36:07;;;;;;;4.22;3.83;;;;;;;1.32;100.00;97364.88;5132197;27;24433;-74
2022/01/17 08:38:33;;;;;;;3.67;3.28;;;;;;;1.30;100.00;97352.97;5129510;27;24869;-74
2022/01/17 08:41:02;;;;;;;5.00;4.05;;;;;;;1.35;100.00;97338.50;5133543;27;24445;-75
2022/01/17 08:43:28;;;;;;;4.50;4.10;;;;;;;1.33;100.00;97332.53;5134191;27;24428;-75
2022/01/17 08:45:55;;;;;;;7.47;4.93;;;;;;;1.35;100.00;97329.16;5132794;27;25075;-74
2022/01/17 08:48:22;;;;;;;8.45;6.03;;;;;;;1.37;100.00;97327.44;5133334;27;24444;-75
2022/01/17 08:50:50;;;;;;;6.88;3.90;;;;;;;1.37;100.00;97332.56;5132178;27;24845;-73
2022/01/17 08:53:17;;;;;;;4.65;3.90;;;;;;;1.32;100.00;97344.47;5131653;27;24459;-74
2022/01/17 08:55:45;;;;;;;3.92;2.80;;;;;;;1.27;100.00;97343.63;5132215;27;24424;-74
2022/01/17 08:58:14;;;;;;;3.33;2.60;;;;;;;1.34;100.00;97352.97;5132577;27;24429;-75
2022/01/17 09:00:42;;;;;;;4.05;2.63;;;;;;;1.37;100.00;97352.09;5131249;27;24445;-74
2022/01/17 09:03:08;;;;;;;3.60;2.60;;;;;;;1.50;100.00;97360.63;5132363;27;24452;-74
2022/01/17 09:05:35;;;;;;;4.40;3.43;;;;;;;1.47;100.00;97371.66;5129695;27;24433;-74
2022/01/17 09:08:04;;;;;;;3.75;2.78;;;;;;;1.53;100.00;97378.50;5131835;27;24486;-74
2022/01/17 09:10:31;;;;;;;3.75;2.75;;;;;;;1.56;100.00;97386.13;5132130;27;24428;-74
2022/01/17 09:12:58;;;;;;;3.63;3.05;;;;;;;1.63;100.00;97386.13;5132837;27;24429;-72
2022/01/17 09:15:26;;;;;;;4.15;2.72;;;;;;;1.69;100.00;97382.69;5133161;27;24478;-74
2022/01/17 09:17:52;;;;;;;5.47;3.78;;;;;;;1.67;100.00;97381.88;5133272;27;24417;-74
2022/01/17 09:20:19;;;;;;;4.40;3.00;;;;;;;1.86;100.00;97375.00;5133571;27;24829;-74
2022/01/17 09:22:45;;;;;;;2.70;2.30;;;;;;;2.07;100.00;97377.47;5132783;27;24429;-75
2022/01/17 09:25:12;;;;;;;4.20;3.03;;;;;;;2.05;100.00;97375.81;5133119;27;24432;-73
2022/01/17 09:27:39;;;;;;;2.72;2.53;;;;;;;2.36;100.00;97374.81;5133669;27;24425;-74
2022/01/17 09:30:09;;;;;;;2.10;1.85;;;;;;;2.31;100.00;97383.38;5132969;27;24506;-74
2022/01/17 09:32:38;;;;;;;1.90;1.42;;;;;;;2.34;100.00;97402.09;5133336;27;24429;-74
2022/01/17 09:35:05;;;;;;;2.22;1.52;;;;;;;2.32;100.00;97396.13;5133888;27;24437;-74
2022/01/17 09:37:32;;;;;;;5.10;2.78;;;;;;;2.65;100.00;97407.91;5132651;27;24549;-75
2022/01/17 09:39:58;;;;;;;2.40;1.90;;;;;;;2.77;100.00;97408.69;5133630;27;24802;-75
2022/01/17 09:42:25;;;;;;;3.25;1.80;;;;;;;2.82;100.00;97406.97;5133577;27;24440;-74
2022/01/17 09:44:51;;;;;;;1.95;1.75;;;;;;;2.77;100.00;97416.38;5132544;27;24428;-75
2022/01/17 09:47:18;;;;;;;2.03;1.48;;;;;;;2.86;100.00;97427.41;5133271;27;24452;-75
2022/01/17 09:49:52;;;;;;;1.38;1.27;;;;;;;3.02;100.00;97411.97;5133974;27;24437;-70
2022/01/17 09:52:34;;;;;;;1.63;1.30;;;;;;;2.85;100.00;97391.56;5133022;27;24497;-74
2022/01/17 09:55:06;;;;;;;1.50;1.20;;;;;;;2.75;100.00;97415.53;5133058;27;24440;-73
2022/01/17 09:57:38;;;;;;;1.30;1.20;;;;;;;2.86;100.00;97411.22;5132905;27;24436;-75
2022/01/17 10:00:07;;;;;;;1.30;1.20;;;;;;;2.67;100.00;97413.03;5132266;27;24449;-74
2022/01/17 10:02:33;;;;;;;1.90;1.20;;;;;;;2.67;100.00;97430.94;5132590;27;24478;-73
2022/01/17 10:05:05;;;;;;;1.33;1.10;;;;;;;2.58;100.00;97416.47;5133133;27;24425;-74
2022/01/17 10:07:53;;;;;;;1.80;1.10;;;;;;;2.59;100.00;97418.16;5131070;27;24470;-73
2022/01/17 10:10:37;;;;;;;2.40;1.25;;;;;;;2.53;100.00;97423.31;5129500;27;24499;-74
2022/01/17 10:13:06;;;;;;;2.80;1.33;;;;;;;2.58;100.00;97420.72;5130330;27;24521;-74
2022/01/17 10:15:44;;;;;;;1.45;1.35;;;;;;;2.57;100.00;97414.78;5131365;27;24513;-74
2022/01/17 10:18:24;;;;;;;1.50;1.40;;;;;;;2.61;100.00;97418.16;5130368;27;24482;-75
2022/01/17 10:20:56;;;;;;;1.63;1.30;;;;;;;2.57;100.00;97419.03;5131761;27;24794;-74
2022/01/17 10:23:41;;;;;;;2.07;1.60;;;;;;;2.49;100.00;97406.28;5131740;27;24459;-74
2022/01/17 10:26:16;;;;;;;2.05;1.70;;;;;;;2.53;100.00;97425.88;5132270;27;25013;-73
2022/01/17 10:29:10;;;;;;;3.60;2.30;;;;;;;2.42;100.00;97425.06;5132629;27;24417;-74
2022/01/17 10:37:10;;;;;;;1.38;1.27;;;;;;;2.56;100.00;97409.66;5125715;27;25028;-74
2022/01/17 10:39:37;;;;;;;1.50;1.40;;;;;;;2.46;100.00;97420.81;5122574;27;24825;-74
2022/01/17 10:42:26;;;;;;;2.53;1.48;;;;;;;2.41;100.00;97419.13;5111974;28;24973;-74
2022/01/17 10:44:52;;;;;;;3.30;1.70;;;;;;;2.33;100.00;97417.44;5122431;27;24436;-74
2022/01/17 10:47:21;;;;;;;2.20;1.55;;;;;;;2.38;100.00;97420.84;5131752;27;24478;-74
2022/01/17 10:49:48;;;;;;;1.60;1.50;;;;;;;2.29;100.00;97423.41;5131119;27;24468;-74
2022/01/17 10:52:28;;;;;;;1.70;1.38;;;;;;;2.30;100.00;97428.53;5131784;27;25280;-73
2022/01/17 10:54:57;;;;;;;1.50;1.33;;;;;;;2.34;100.00;97442.16;5132251;27;24448;-75
2022/01/17 10:57:23;;;;;;;2.08;1.70;;;;;;;2.48;100.00;97437.81;5152623;27;24515;-73
2022/01/17 10:59:52;;;;;;;2.47;1.77;;;;;;;2.69;100.00;97441.16;5144039;27;24449;-73
2022/01/17 11:02:19;;;;;;;2.30;2.03;;;;;;;2.82;100.00;97440.25;5132217;27;24822;-73
2022/01/17 11:04:49;;;;;;;1.92;1.67;;;;;;;2.85;100.00;97442.75;5132514;27;24425;-74
2022/01/17 11:07:16;;;;;;;2.03;1.60;;;;;;;2.87;100.00;97441.91;5130887;27;24841;-74
2022/01/17 11:09:48;;;;;;;2.95;2.00;;;;;;;2.82;100.00;97453.03;5132052;27;24409;-74
2022/01/17 11:12:16;;;;;;;1.90;1.40;;;;;;;2.96;100.00;97447.81;5131554;27;24825;-74
2022/01/17 11:14:45;;;;;;;1.70;1.20;;;;;;;2.86;100.00;97441.91;5131692;27;24553;-74
2022/01/17 11:17:15;;;;;;;2.20;1.40;;;;;;;2.88;100.00;97440.19;5131522;27;24436;-73
2022/01/17 11:22:28;;;;;;;2.88;1.40;;;;;;;2.94;100.00;97440.16;5130855;27;24593;-75
2022/01/17 11:24:57;;;;;;;3.40;1.73;;;;;;;3.00;100.00;97436.69;5131160;27;24444;-75
2022/01/17 11:27:25;;;;;;;3.20;1.48;;;;;;;2.96;100.00;97440.13;5131172;27;24837;-74
2022/01/17 11:29:52;;;;;;;2.08;1.55;;;;;;;2.96;100.00;97435.03;5130638;27;24437;-76
2022/01/17 11:32:18;;;;;;;2.35;1.90;;;;;;;3.06;100.00;97454.59;5131186;27;24433;-75
2022/01/17 11:34:45;;;;;;;2.60;1.70;;;;;;;2.98;100.00;97444.41;5130508;27;24421;-75
2022/01/17 11:37:12;;;;;;;6.10;2.95;;;;;;;2.95;100.00;97446.97;5128319;27;24439;-73
2022/01/17 11:39:45;;;;;;;2.72;2.10;;;;;;;2.82;100.00;97441.09;5124092;27;24533;-73
2022/01/17 11:42:39;;;;;;;2.90;2.15;;;;;;;2.66;100.00;97449.69;5125468;27;24825;-78
2022/01/17 11:45:43;;;;;;;3.97;2.25;;;;;;;2.72;100.00;97443.69;5130746;27;24433;-77
2022/01/17 11:48:19;;;;;;;3.60;2.20;;;;;;;2.75;100.00;97438.56;5114195;27;24452;-78
2022/01/17 11:50:48;;;;;;;1.80;1.60;;;;;;;2.75;100.00;97441.13;5111952;28;24444;-77
2022/01/17 11:53:39;;;;;;;1.90;1.70;;;;;;;2.78;100.00;97426.63;5113532;27;24501;-77
2022/01/17 11:56:08;;;;;;;2.20;1.87;;;;;;;2.80;100.00;97416.34;5130722;27;22386;-77